This is the latest recevied weather packets stored in our database for station/object WD7CGF. If no packets are shown the sender has not sent any weather packets the latest 10 day(s).
| Time | Temp. | Humidity | Pressure | Rain* | Wind** | Luminosity | Snow |
|---|---|---|---|---|---|---|---|
| 1777603691 | 19.44° C | 39% | 1016.5 hPa | 0 mm | - | - | - |
| 1777603104 | 20° C | 38% | 1016.4 hPa | 0 mm | - | - | - |
| 1777602492 | 20° C | 38% | 1016.4 hPa | 0 mm | - | - | - |
| 1777601907 | 20.56° C | 37% | 1016.4 hPa | 0 mm | - | - | - |
| 1777601294 | 20.56° C | 37% | 1016.1 hPa | 0 mm | - | - | - |
| 1777600706 | 21.11° C | 35% | 1016.2 hPa | 0 mm | - | - | - |
| 1777586908 | 23.33° C | 32% | 1017.9 hPa | 0 mm | - | - | - |
| 1777585698 | 23.33° C | 34% | 1018 hPa | 0 mm | - | - | - |
| 1777577894 | 22.22° C | 42% | 1020.3 hPa | 0 mm | - | - | - |
| 1777577302 | 22.22° C | 39% | 1019.5 hPa | 0 mm | - | - | - |
| 1777573699 | 20° C | 49% | 1020.3 hPa | 0 mm | - | - | - |
| 1777570109 | 16.67° C | 56% | 1021.3 hPa | 0 mm | - | - | - |
| 1777567088 | 15° C | 60% | 1021.6 hPa | 0 mm | - | - | - |
| 1777564706 | 12.78° C | 67% | 1021.8 hPa | 0 mm | - | - | - |
| 1777564092 | 12.22° C | 69% | 1021.8 hPa | 0 mm | - | - | - |
| 1777562305 | 11.11° C | 72% | 1022.4 hPa | 0 mm | - | - | - |
| 1777558110 | 4.44° C | 92% | 1022.7 hPa | 0 mm | - | - | - |
| 1777557499 | 3.33° C | 92% | 1022.6 hPa | 0 mm | - | - | - |
| 1777554504 | 1.67° C | 91% | 1022.3 hPa | 0 mm | - | - | - |
| 1777553913 | 1.67° C | 91% | 1022.2 hPa | 0 mm | - | - | - |
| 1777552700 | 2.22° C | 90% | 1022.2 hPa | 0 mm | - | - | - |
| 1777550294 | 2.22° C | 90% | 1022.1 hPa | 0 mm | - | - | - |
| 1777547296 | 3.33° C | 89% | 1022 hPa | 0 mm | - | - | - |
| 1777544913 | 3.89° C | 88% | 1021.7 hPa | 0 mm | - | - | - |
| 1777544298 | 3.89° C | 88% | 1021.7 hPa | 0 mm | - | - | - |
* Rain since midnight (hover to see other rain measurements)
** Current wind speed in m/s (hover to see current wind gust speed)